sensor_id;sensor_type;location;lat;lon;timestamp;P1;durP1;ratioP1;P2;durP2;ratioP2
45893;SDS011;31603;51.148;16.932;2023-08-01T00:01:09;4.78;;;2.30;;
45893;SDS011;31603;51.148;16.932;2023-08-01T00:03:35;9.85;;;3.08;;
45893;SDS011;31603;51.148;16.932;2023-08-01T00:06:02;4.18;;;2.30;;
45893;SDS011;31603;51.148;16.932;2023-08-01T00:08:28;3.35;;;2.25;;
45893;SDS011;31603;51.148;16.932;2023-08-01T00:10:54;4.95;;;2.50;;
45893;SDS011;31603;51.148;16.932;2023-08-01T00:13:20;3.95;;;2.15;;
45893;SDS011;31603;51.148;16.932;2023-08-01T00:15:47;7.50;;;2.45;;
45893;SDS011;31603;51.148;16.932;2023-08-01T00:18:14;5.38;;;2.58;;
45893;SDS011;31603;51.148;16.932;2023-08-01T00:20:40;4.20;;;2.33;;
45893;SDS011;31603;51.148;16.932;2023-08-01T00:23:07;6.75;;;2.72;;
45893;SDS011;31603;51.148;16.932;2023-08-01T00:25:33;4.68;;;2.20;;
45893;SDS011;31603;51.148;16.932;2023-08-01T00:27:59;3.88;;;2.25;;
45893;SDS011;31603;51.148;16.932;2023-08-01T00:30:25;8.32;;;2.80;;
45893;SDS011;31603;51.148;16.932;2023-08-01T00:32:51;5.88;;;2.60;;
45893;SDS011;31603;51.148;16.932;2023-08-01T00:35:19;4.20;;;2.42;;
45893;SDS011;31603;51.148;16.932;2023-08-01T00:37:46;4.63;;;2.33;;
45893;SDS011;31603;51.148;16.932;2023-08-01T00:40:12;4.50;;;2.17;;
45893;SDS011;31603;51.148;16.932;2023-08-01T00:42:38;6.25;;;2.45;;
45893;SDS011;31603;51.148;16.932;2023-08-01T00:45:05;8.75;;;3.15;;
45893;SDS011;31603;51.148;16.932;2023-08-01T00:47:31;4.75;;;2.50;;
45893;SDS011;31603;51.148;16.932;2023-08-01T00:49:58;4.22;;;2.40;;
45893;SDS011;31603;51.148;16.932;2023-08-01T00:52:25;3.92;;;2.42;;
45893;SDS011;31603;51.148;16.932;2023-08-01T00:54:52;5.35;;;2.17;;
45893;SDS011;31603;51.148;16.932;2023-08-01T00:57:20;11.75;;;2.28;;
45893;SDS011;31603;51.148;16.932;2023-08-01T00:59:47;5.35;;;2.15;;
45893;SDS011;31603;51.148;16.932;2023-08-01T01:02:13;4.25;;;2.13;;
45893;SDS011;31603;51.148;16.932;2023-08-01T01:04:39;9.93;;;2.58;;
45893;SDS011;31603;51.148;16.932;2023-08-01T01:07:06;2.75;;;1.92;;
45893;SDS011;31603;51.148;16.932;2023-08-01T01:09:34;5.43;;;2.33;;
45893;SDS011;31603;51.148;16.932;2023-08-01T01:12:00;6.13;;;2.38;;
45893;SDS011;31603;51.148;16.932;2023-08-01T01:14:26;5.82;;;2.58;;
45893;SDS011;31603;51.148;16.932;2023-08-01T01:16:52;4.43;;;2.42;;
45893;SDS011;31603;51.148;16.932;2023-08-01T01:19:19;5.97;;;2.30;;
45893;SDS011;31603;51.148;16.932;2023-08-01T01:21:46;7.28;;;2.45;;
45893;SDS011;31603;51.148;16.932;2023-08-01T01:24:13;4.35;;;2.25;;
45893;SDS011;31603;51.148;16.932;2023-08-01T01:26:40;6.47;;;2.60;;
45893;SDS011;31603;51.148;16.932;2023-08-01T01:29:07;4.57;;;2.50;;
45893;SDS011;31603;51.148;16.932;2023-08-01T01:31:34;4.22;;;2.30;;
45893;SDS011;31603;51.148;16.932;2023-08-01T01:34:00;5.80;;;2.42;;
45893;SDS011;31603;51.148;16.932;2023-08-01T01:36:27;5.20;;;2.40;;
45893;SDS011;31603;51.148;16.932;2023-08-01T01:38:55;5.68;;;2.28;;
45893;SDS011;31603;51.148;16.932;2023-08-01T01:41:22;5.50;;;2.17;;
45893;SDS011;31603;51.148;16.932;2023-08-01T01:43:48;4.22;;;2.38;;
45893;SDS011;31603;51.148;16.932;2023-08-01T01:46:14;4.95;;;2.45;;
45893;SDS011;31603;51.148;16.932;2023-08-01T01:48:41;5.70;;;2.50;;
45893;SDS011;31603;51.148;16.932;2023-08-01T01:51:07;4.28;;;2.55;;
45893;SDS011;31603;51.148;16.932;2023-08-01T01:53:33;3.50;;;2.47;;
45893;SDS011;31603;51.148;16.932;2023-08-01T01:56:01;5.45;;;2.45;;
45893;SDS011;31603;51.148;16.932;2023-08-01T01:58:27;4.03;;;2.20;;
45893;SDS011;31603;51.148;16.932;2023-08-01T02:00:53;6.95;;;2.80;;
45893;SDS011;31603;51.148;16.932;2023-08-01T02:03:19;5.20;;;2.63;;
45893;SDS011;31603;51.148;16.932;2023-08-01T02:05:46;4.63;;;2.58;;
45893;SDS011;31603;51.148;16.932;2023-08-01T02:08:12;2.95;;;2.08;;
45893;SDS011;31603;51.148;16.932;2023-08-01T02:10:38;5.50;;;2.58;;
45893;SDS011;31603;51.148;16.932;2023-08-01T02:13:06;4.20;;;2.40;;
45893;SDS011;31603;51.148;16.932;2023-08-01T02:15:33;4.90;;;2.17;;
45893;SDS011;31603;51.148;16.932;2023-08-01T02:17:59;5.18;;;2.35;;
45893;SDS011;31603;51.148;16.932;2023-08-01T02:20:25;4.53;;;2.17;;
45893;SDS011;31603;51.148;16.932;2023-08-01T02:22:53;5.78;;;2.05;;
45893;SDS011;31603;51.148;16.932;2023-08-01T02:25:19;3.22;;;2.20;;
45893;SDS011;31603;51.148;16.932;2023-08-01T02:27:45;6.28;;;2.30;;
45893;SDS011;31603;51.148;16.932;2023-08-01T02:30:13;8.52;;;2.88;;
45893;SDS011;31603;51.148;16.932;2023-08-01T02:32:39;3.70;;;2.45;;
45893;SDS011;31603;51.148;16.932;2023-08-01T02:35:07;4.32;;;2.50;;
45893;SDS011;31603;51.148;16.932;2023-08-01T02:37:33;3.90;;;2.20;;
45893;SDS011;31603;51.148;16.932;2023-08-01T02:40:00;5.57;;;2.20;;
45893;SDS011;31603;51.148;16.932;2023-08-01T02:42:27;5.25;;;2.10;;
45893;SDS011;31603;51.148;16.932;2023-08-01T02:44:53;2.78;;;2.13;;
45893;SDS011;31603;51.148;16.932;2023-08-01T02:47:21;8.25;;;2.20;;
45893;SDS011;31603;51.148;16.932;2023-08-01T02:49:47;5.45;;;2.55;;
45893;SDS011;31603;51.148;16.932;2023-08-01T02:52:13;3.67;;;1.92;;
45893;SDS011;31603;51.148;16.932;2023-08-01T02:54:40;4.60;;;2.33;;
45893;SDS011;31603;51.148;16.932;2023-08-01T02:57:06;6.47;;;3.08;;
45893;SDS011;31603;51.148;16.932;2023-08-01T02:59:32;5.32;;;2.58;;
45893;SDS011;31603;51.148;16.932;2023-08-01T03:01:59;5.65;;;2.47;;
45893;SDS011;31603;51.148;16.932;2023-08-01T03:04:26;4.57;;;2.20;;
45893;SDS011;31603;51.148;16.932;2023-08-01T03:06:53;5.68;;;2.80;;
45893;SDS011;31603;51.148;16.932;2023-08-01T03:09:19;5.13;;;2.75;;
45893;SDS011;31603;51.148;16.932;2023-08-01T03:11:45;7.07;;;2.47;;
45893;SDS011;31603;51.148;16.932;2023-08-01T03:14:11;6.32;;;2.75;;
45893;SDS011;31603;51.148;16.932;2023-08-01T03:16:38;6.15;;;2.83;;
45893;SDS011;31603;51.148;16.932;2023-08-01T03:19:07;5.65;;;2.85;;
45893;SDS011;31603;51.148;16.932;2023-08-01T03:21:35;5.70;;;2.60;;
45893;SDS011;31603;51.148;16.932;2023-08-01T03:24:01;3.38;;;2.63;;
45893;SDS011;31603;51.148;16.932;2023-08-01T03:26:28;8.45;;;2.92;;
45893;SDS011;31603;51.148;16.932;2023-08-01T03:28:54;6.68;;;3.20;;
45893;SDS011;31603;51.148;16.932;2023-08-01T03:31:21;10.07;;;3.15;;
45893;SDS011;31603;51.148;16.932;2023-08-01T03:33:47;4.45;;;2.55;;
45893;SDS011;31603;51.148;16.932;2023-08-01T03:36:13;7.25;;;2.85;;
45893;SDS011;31603;51.148;16.932;2023-08-01T03:38:41;4.63;;;2.47;;
45893;SDS011;31603;51.148;16.932;2023-08-01T03:41:08;5.57;;;2.38;;
45893;SDS011;31603;51.148;16.932;2023-08-01T03:43:34;5.72;;;2.63;;
45893;SDS011;31603;51.148;16.932;2023-08-01T03:46:00;5.43;;;2.72;;
45893;SDS011;31603;51.148;16.932;2023-08-01T03:48:27;6.15;;;3.03;;
45893;SDS011;31603;51.148;16.932;2023-08-01T03:50:53;4.20;;;2.55;;
45893;SDS011;31603;51.148;16.932;2023-08-01T03:53:19;4.25;;;2.40;;
45893;SDS011;31603;51.148;16.932;2023-08-01T03:55:47;3.75;;;2.70;;
45893;SDS011;31603;51.148;16.932;2023-08-01T03:58:13;6.00;;;2.75;;
45893;SDS011;31603;51.148;16.932;2023-08-01T04:00:40;4.63;;;2.78;;
45893;SDS011;31603;51.148;16.932;2023-08-01T04:03:06;5.95;;;2.50;;
45893;SDS011;31603;51.148;16.932;2023-08-01T04:05:32;5.43;;;2.63;;
45893;SDS011;31603;51.148;16.932;2023-08-01T04:07:59;5.75;;;2.70;;
45893;SDS011;31603;51.148;16.932;2023-08-01T04:10:25;6.10;;;3.20;;
45893;SDS011;31603;51.148;16.932;2023-08-01T04:12:52;6.32;;;3.38;;
45893;SDS011;31603;51.148;16.932;2023-08-01T04:15:19;3.72;;;2.50;;
45893;SDS011;31603;51.148;16.932;2023-08-01T04:17:45;8.25;;;3.20;;
45893;SDS011;31603;51.148;16.932;2023-08-01T04:20:11;7.60;;;2.70;;
45893;SDS011;31603;51.148;16.932;2023-08-01T04:22:38;3.45;;;2.60;;
45893;SDS011;31603;51.148;16.932;2023-08-01T04:25:04;6.82;;;3.08;;
45893;SDS011;31603;51.148;16.932;2023-08-01T04:27:30;4.75;;;3.25;;
45893;SDS011;31603;51.148;16.932;2023-08-01T04:29:58;4.68;;;3.15;;
45893;SDS011;31603;51.148;16.932;2023-08-01T04:32:24;4.55;;;2.80;;
45893;SDS011;31603;51.148;16.932;2023-08-01T04:34:51;6.75;;;3.08;;
45893;SDS011;31603;51.148;16.932;2023-08-01T04:37:17;6.07;;;3.00;;
45893;SDS011;31603;51.148;16.932;2023-08-01T04:39:45;5.85;;;2.95;;
45893;SDS011;31603;51.148;16.932;2023-08-01T04:42:11;7.95;;;4.45;;
45893;SDS011;31603;51.148;16.932;2023-08-01T04:44:38;5.13;;;3.42;;
45893;SDS011;31603;51.148;16.932;2023-08-01T04:47:06;5.13;;;3.22;;
45893;SDS011;31603;51.148;16.932;2023-08-01T04:49:32;6.47;;;3.17;;
45893;SDS011;31603;51.148;16.932;2023-08-01T04:51:58;4.38;;;2.80;;
45893;SDS011;31603;51.148;16.932;2023-08-01T04:54:25;8.40;;;3.30;;
45893;SDS011;31603;51.148;16.932;2023-08-01T04:56:51;7.00;;;2.88;;
45893;SDS011;31603;51.148;16.932;2023-08-01T04:59:17;6.45;;;3.53;;
45893;SDS011;31603;51.148;16.932;2023-08-01T05:01:44;5.30;;;3.65;;
45893;SDS011;31603;51.148;16.932;2023-08-01T05:04:11;7.07;;;3.30;;
45893;SDS011;31603;51.148;16.932;2023-08-01T05:06:37;5.63;;;2.70;;
45893;SDS011;31603;51.148;16.932;2023-08-01T05:09:05;6.38;;;3.28;;
45893;SDS011;31603;51.148;16.932;2023-08-01T05:11:32;6.35;;;3.15;;
45893;SDS011;31603;51.148;16.932;2023-08-01T05:13:58;5.13;;;2.88;;
45893;SDS011;31603;51.148;16.932;2023-08-01T05:16:24;5.72;;;3.20;;
45893;SDS011;31603;51.148;16.932;2023-08-01T05:18:50;5.95;;;3.17;;
45893;SDS011;31603;51.148;16.932;2023-08-01T05:21:18;5.50;;;3.53;;
45893;SDS011;31603;51.148;16.932;2023-08-01T05:23:44;5.90;;;3.28;;
45893;SDS011;31603;51.148;16.932;2023-08-01T05:26:11;11.57;;;3.50;;
45893;SDS011;31603;51.148;16.932;2023-08-01T05:28:37;4.13;;;3.15;;
45893;SDS011;31603;51.148;16.932;2023-08-01T05:31:03;4.88;;;3.17;;
45893;SDS011;31603;51.148;16.932;2023-08-01T05:33:29;8.57;;;3.75;;
45893;SDS011;31603;51.148;16.932;2023-08-01T05:35:56;7.75;;;3.50;;
45893;SDS011;31603;51.148;16.932;2023-08-01T05:38:24;6.45;;;4.20;;
45893;SDS011;31603;51.148;16.932;2023-08-01T05:40:50;8.95;;;4.05;;
45893;SDS011;31603;51.148;16.932;2023-08-01T05:43:16;10.02;;;4.10;;
45893;SDS011;31603;51.148;16.932;2023-08-01T05:45:43;8.98;;;4.35;;
45893;SDS011;31603;51.148;16.932;2023-08-01T05:48:09;8.63;;;4.00;;
45893;SDS011;31603;51.148;16.932;2023-08-01T05:50:35;11.65;;;4.60;;
45893;SDS011;31603;51.148;16.932;2023-08-01T05:53:02;8.32;;;4.32;;
45893;SDS011;31603;51.148;16.932;2023-08-01T05:55:30;9.38;;;4.30;;
45893;SDS011;31603;51.148;16.932;2023-08-01T05:57:56;8.95;;;3.97;;
45893;SDS011;31603;51.148;16.932;2023-08-01T06:00:22;7.45;;;4.35;;
45893;SDS011;31603;51.148;16.932;2023-08-01T06:02:48;8.75;;;4.45;;
45893;SDS011;31603;51.148;16.932;2023-08-01T06:05:15;9.13;;;4.15;;
45893;SDS011;31603;51.148;16.932;2023-08-01T06:07:41;10.25;;;4.72;;
45893;SDS011;31603;51.148;16.932;2023-08-01T06:10:07;8.27;;;4.40;;
45893;SDS011;31603;51.148;16.932;2023-08-01T06:12:35;8.45;;;4.53;;
45893;SDS011;31603;51.148;16.932;2023-08-01T06:15:01;10.35;;;4.70;;
45893;SDS011;31603;51.148;16.932;2023-08-01T06:17:27;6.60;;;3.85;;
45893;SDS011;31603;51.148;16.932;2023-08-01T06:19:53;8.77;;;4.50;;
45893;SDS011;31603;51.148;16.932;2023-08-01T06:22:20;9.10;;;4.07;;
45893;SDS011;31603;51.148;16.932;2023-08-01T06:24:46;11.02;;;4.75;;
45893;SDS011;31603;51.148;16.932;2023-08-01T06:27:13;8.85;;;5.05;;
45893;SDS011;31603;51.148;16.932;2023-08-01T06:29:41;6.82;;;4.55;;
45893;SDS011;31603;51.148;16.932;2023-08-01T06:32:07;11.48;;;4.80;;
45893;SDS011;31603;51.148;16.932;2023-08-01T06:34:33;7.22;;;4.45;;
45893;SDS011;31603;51.148;16.932;2023-08-01T06:37:00;6.80;;;4.50;;
45893;SDS011;31603;51.148;16.932;2023-08-01T06:39:26;9.57;;;5.10;;
45893;SDS011;31603;51.148;16.932;2023-08-01T06:41:52;6.20;;;4.05;;
45893;SDS011;31603;51.148;16.932;2023-08-01T06:44:19;6.28;;;4.25;;
45893;SDS011;31603;51.148;16.932;2023-08-01T06:46:46;7.55;;;4.40;;
45893;SDS011;31603;51.148;16.932;2023-08-01T06:49:13;7.55;;;4.43;;
45893;SDS011;31603;51.148;16.932;2023-08-01T06:51:39;9.38;;;4.72;;
45893;SDS011;31603;51.148;16.932;2023-08-01T06:54:06;11.07;;;4.65;;
45893;SDS011;31603;51.148;16.932;2023-08-01T06:56:33;7.13;;;4.50;;
45893;SDS011;31603;51.148;16.932;2023-08-01T06:58:59;8.75;;;4.20;;
45893;SDS011;31603;51.148;16.932;2023-08-01T07:01:25;8.15;;;4.65;;
45893;SDS011;31603;51.148;16.932;2023-08-01T07:03:53;9.95;;;4.35;;
45893;SDS011;31603;51.148;16.932;2023-08-01T07:06:20;8.15;;;4.50;;
45893;SDS011;31603;51.148;16.932;2023-08-01T07:08:46;7.13;;;4.10;;
45893;SDS011;31603;51.148;16.932;2023-08-01T07:11:13;7.75;;;4.32;;
45893;SDS011;31603;51.148;16.932;2023-08-01T07:13:39;8.48;;;4.50;;
45893;SDS011;31603;51.148;16.932;2023-08-01T07:16:05;9.48;;;4.90;;
45893;SDS011;31603;51.148;16.932;2023-08-01T07:18:32;7.53;;;4.38;;
45893;SDS011;31603;51.148;16.932;2023-08-01T07:21:02;10.85;;;5.05;;
45893;SDS011;31603;51.148;16.932;2023-08-01T07:23:29;6.75;;;4.25;;
45893;SDS011;31603;51.148;16.932;2023-08-01T07:25:56;9.65;;;5.07;;
45893;SDS011;31603;51.148;16.932;2023-08-01T07:28:22;7.35;;;4.90;;
45893;SDS011;31603;51.148;16.932;2023-08-01T07:30:48;8.85;;;4.40;;
45893;SDS011;31603;51.148;16.932;2023-08-01T07:33:14;9.90;;;5.03;;
45893;SDS011;31603;51.148;16.932;2023-08-01T07:35:41;9.57;;;5.28;;
45893;SDS011;31603;51.148;16.932;2023-08-01T07:38:08;8.13;;;4.55;;
45893;SDS011;31603;51.148;16.932;2023-08-01T07:40:36;6.93;;;4.22;;
45893;SDS011;31603;51.148;16.932;2023-08-01T07:43:02;12.23;;;4.50;;
45893;SDS011;31603;51.148;16.932;2023-08-01T07:45:28;12.43;;;4.95;;
45893;SDS011;31603;51.148;16.932;2023-08-01T07:47:54;11.25;;;4.57;;
45893;SDS011;31603;51.148;16.932;2023-08-01T07:50:20;8.00;;;4.80;;
45893;SDS011;31603;51.148;16.932;2023-08-01T07:52:47;6.53;;;4.45;;
45893;SDS011;31603;51.148;16.932;2023-08-01T07:55:14;7.75;;;3.92;;
45893;SDS011;31603;51.148;16.932;2023-08-01T07:57:42;6.47;;;4.00;;
45893;SDS011;31603;51.148;16.932;2023-08-01T08:00:08;6.75;;;3.95;;
45893;SDS011;31603;51.148;16.932;2023-08-01T08:02:35;9.57;;;4.93;;
45893;SDS011;31603;51.148;16.932;2023-08-01T08:05:01;7.70;;;3.83;;
45893;SDS011;31603;51.148;16.932;2023-08-01T08:07:27;7.07;;;3.90;;
45893;SDS011;31603;51.148;16.932;2023-08-01T08:09:53;9.40;;;3.92;;
45893;SDS011;31603;51.148;16.932;2023-08-01T08:12:21;5.63;;;3.63;;
45893;SDS011;31603;51.148;16.932;2023-08-01T08:14:48;6.05;;;4.00;;
45893;SDS011;31603;51.148;16.932;2023-08-01T08:17:14;6.10;;;3.53;;
45893;SDS011;31603;51.148;16.932;2023-08-01T08:19:40;8.52;;;3.63;;
45893;SDS011;31603;51.148;16.932;2023-08-01T08:22:07;8.35;;;3.75;;
45893;SDS011;31603;51.148;16.932;2023-08-01T08:24:33;6.85;;;4.15;;
45893;SDS011;31603;51.148;16.932;2023-08-01T08:26:59;7.05;;;4.65;;
45893;SDS011;31603;51.148;16.932;2023-08-01T08:29:27;7.10;;;4.32;;
45893;SDS011;31603;51.148;16.932;2023-08-01T08:31:53;8.45;;;4.38;;
45893;SDS011;31603;51.148;16.932;2023-08-01T08:34:19;5.57;;;3.80;;
45893;SDS011;31603;51.148;16.932;2023-08-01T08:36:45;5.80;;;4.20;;
45893;SDS011;31603;51.148;16.932;2023-08-01T08:39:12;8.98;;;4.35;;
45893;SDS011;31603;51.148;16.932;2023-08-01T08:41:39;7.07;;;4.32;;
45893;SDS011;31603;51.148;16.932;2023-08-01T08:44:07;10.60;;;4.05;;
45893;SDS011;31603;51.148;16.932;2023-08-01T08:46:38;6.05;;;3.90;;
45893;SDS011;31603;51.148;16.932;2023-08-01T08:49:06;6.72;;;3.85;;
45893;SDS011;31603;51.148;16.932;2023-08-01T08:51:33;8.10;;;4.05;;
45893;SDS011;31603;51.148;16.932;2023-08-01T08:54:01;8.07;;;4.15;;
45893;SDS011;31603;51.148;16.932;2023-08-01T08:56:28;6.20;;;3.22;;
45893;SDS011;31603;51.148;16.932;2023-08-01T08:58:55;6.72;;;3.53;;
45893;SDS011;31603;51.148;16.932;2023-08-01T09:01:22;10.15;;;3.90;;
45893;SDS011;31603;51.148;16.932;2023-08-01T09:03:50;6.15;;;3.50;;
45893;SDS011;31603;51.148;16.932;2023-08-01T09:06:17;8.25;;;3.85;;
45893;SDS011;31603;51.148;16.932;2023-08-01T09:08:45;5.95;;;2.92;;
45893;SDS011;31603;51.148;16.932;2023-08-01T09:11:13;8.13;;;3.58;;
45893;SDS011;31603;51.148;16.932;2023-08-01T09:13:39;7.75;;;4.38;;
45893;SDS011;31603;51.148;16.932;2023-08-01T09:16:05;5.72;;;3.17;;
45893;SDS011;31603;51.148;16.932;2023-08-01T09:18:32;6.50;;;3.50;;
45893;SDS011;31603;51.148;16.932;2023-08-01T09:21:00;6.40;;;3.45;;
45893;SDS011;31603;51.148;16.932;2023-08-01T09:23:27;10.05;;;3.00;;
45893;SDS011;31603;51.148;16.932;2023-08-01T09:25:55;6.13;;;3.20;;
45893;SDS011;31603;51.148;16.932;2023-08-01T09:28:22;6.47;;;3.40;;
45893;SDS011;31603;51.148;16.932;2023-08-01T09:30:49;6.97;;;3.47;;
45893;SDS011;31603;51.148;16.932;2023-08-01T09:33:15;6.53;;;3.72;;
45893;SDS011;31603;51.148;16.932;2023-08-01T09:35:41;4.63;;;2.92;;
45893;SDS011;31603;51.148;16.932;2023-08-01T09:38:10;6.43;;;3.22;;
45893;SDS011;31603;51.148;16.932;2023-08-01T09:40:37;5.25;;;3.15;;
45893;SDS011;31603;51.148;16.932;2023-08-01T09:43:04;7.13;;;3.42;;
45893;SDS011;31603;51.148;16.932;2023-08-01T09:45:30;5.82;;;3.90;;
45893;SDS011;31603;51.148;16.932;2023-08-01T09:47:56;6.90;;;3.03;;
45893;SDS011;31603;51.148;16.932;2023-08-01T09:50:23;6.57;;;3.17;;
45893;SDS011;31603;51.148;16.932;2023-08-01T09:52:50;7.35;;;3.67;;
45893;SDS011;31603;51.148;16.932;2023-08-01T09:55:19;6.60;;;3.08;;
45893;SDS011;31603;51.148;16.932;2023-08-01T10:00:16;4.70;;;2.65;;
45893;SDS011;31603;51.148;16.932;2023-08-01T10:02:42;5.07;;;2.90;;
45893;SDS011;31603;51.148;16.932;2023-08-01T10:05:08;4.22;;;2.72;;
45893;SDS011;31603;51.148;16.932;2023-08-01T10:07:35;4.65;;;3.28;;
45893;SDS011;31603;51.148;16.932;2023-08-01T10:10:05;5.38;;;2.90;;
45893;SDS011;31603;51.148;16.932;2023-08-01T10:12:33;4.57;;;3.10;;
45893;SDS011;31603;51.148;16.932;2023-08-01T10:14:59;3.45;;;2.47;;
45893;SDS011;31603;51.148;16.932;2023-08-01T10:17:26;5.53;;;3.70;;
45893;SDS011;31603;51.148;16.932;2023-08-01T10:19:53;4.72;;;3.05;;
45893;SDS011;31603;51.148;16.932;2023-08-01T10:22:22;4.72;;;2.88;;
45893;SDS011;31603;51.148;16.932;2023-08-01T10:24:50;5.30;;;3.00;;
45893;SDS011;31603;51.148;16.932;2023-08-01T10:27:18;6.50;;;2.58;;
45893;SDS011;31603;51.148;16.932;2023-08-01T10:29:55;4.15;;;2.33;;
45893;SDS011;31603;51.148;16.932;2023-08-01T10:32:27;5.40;;;2.67;;
45893;SDS011;31603;51.148;16.932;2023-08-01T10:34:54;4.13;;;2.97;;
45893;SDS011;31603;51.148;16.932;2023-08-01T10:37:20;4.18;;;2.70;;
45893;SDS011;31603;51.148;16.932;2023-08-01T10:39:55;4.40;;;2.70;;
45893;SDS011;31603;51.148;16.932;2023-08-01T10:42:22;4.20;;;2.80;;
45893;SDS011;31603;51.148;16.932;2023-08-01T10:44:49;4.15;;;3.00;;
45893;SDS011;31603;51.148;16.932;2023-08-01T10:47:24;5.90;;;3.20;;
45893;SDS011;31603;51.148;16.932;2023-08-01T10:49:51;4.43;;;3.08;;
45893;SDS011;31603;51.148;16.932;2023-08-01T10:52:18;3.85;;;2.90;;
45893;SDS011;31603;51.148;16.932;2023-08-01T10:54:44;4.13;;;2.67;;
45893;SDS011;31603;51.148;16.932;2023-08-01T10:57:15;5.28;;;2.95;;
45893;SDS011;31603;51.148;16.932;2023-08-01T10:59:41;5.18;;;2.47;;
45893;SDS011;31603;51.148;16.932;2023-08-01T11:02:09;5.47;;;2.60;;
45893;SDS011;31603;51.148;16.932;2023-08-01T11:04:35;6.55;;;2.55;;
45893;SDS011;31603;51.148;16.932;2023-08-01T11:07:03;5.72;;;2.60;;
45893;SDS011;31603;51.148;16.932;2023-08-01T11:09:30;4.72;;;2.88;;
45893;SDS011;31603;51.148;16.932;2023-08-01T11:11:58;4.75;;;3.25;;
45893;SDS011;31603;51.148;16.932;2023-08-01T11:14:26;3.95;;;2.70;;
45893;SDS011;31603;51.148;16.932;2023-08-01T11:16:53;3.55;;;2.80;;
45893;SDS011;31603;51.148;16.932;2023-08-01T11:19:22;3.88;;;2.50;;
45893;SDS011;31603;51.148;16.932;2023-08-01T11:21:49;4.10;;;2.95;;
45893;SDS011;31603;51.148;16.932;2023-08-01T11:24:17;5.45;;;2.92;;
45893;SDS011;31603;51.148;16.932;2023-08-01T11:26:43;6.38;;;2.33;;
45893;SDS011;31603;51.148;16.932;2023-08-01T11:29:10;3.55;;;2.53;;
45893;SDS011;31603;51.148;16.932;2023-08-01T11:31:37;4.05;;;2.33;;
45893;SDS011;31603;51.148;16.932;2023-08-01T11:34:03;2.72;;;1.98;;
45893;SDS011;31603;51.148;16.932;2023-08-01T11:36:30;4.03;;;2.20;;
45893;SDS011;31603;51.148;16.932;2023-08-01T11:38:57;3.88;;;2.28;;
45893;SDS011;31603;51.148;16.932;2023-08-01T11:41:24;4.55;;;2.13;;
45893;SDS011;31603;51.148;16.932;2023-08-01T11:43:50;2.95;;;1.85;;
45893;SDS011;31603;51.148;16.932;2023-08-01T11:46:17;5.28;;;2.05;;
45893;SDS011;31603;51.148;16.932;2023-08-01T11:48:44;3.38;;;2.10;;
45893;SDS011;31603;51.148;16.932;2023-08-01T11:51:10;3.22;;;1.90;;
45893;SDS011;31603;51.148;16.932;2023-08-01T11:53:38;2.10;;;1.80;;
45893;SDS011;31603;51.148;16.932;2023-08-01T11:56:04;1.85;;;1.63;;
45893;SDS011;31603;51.148;16.932;2023-08-01T11:58:31;3.05;;;1.40;;
45893;SDS011;31603;51.148;16.932;2023-08-01T12:01:01;2.20;;;1.70;;
45893;SDS011;31603;51.148;16.932;2023-08-01T12:03:28;1.92;;;1.73;;
45893;SDS011;31603;51.148;16.932;2023-08-01T12:06:01;3.17;;;1.65;;
45893;SDS011;31603;51.148;16.932;2023-08-01T12:08:31;3.35;;;1.67;;
45893;SDS011;31603;51.148;16.932;2023-08-01T12:10:59;2.20;;;1.58;;
45893;SDS011;31603;51.148;16.932;2023-08-01T12:13:25;4.28;;;1.40;;
45893;SDS011;31603;51.148;16.932;2023-08-01T12:15:53;1.92;;;1.50;;
45893;SDS011;31603;51.148;16.932;2023-08-01T12:18:21;2.83;;;1.70;;
45893;SDS011;31603;51.148;16.932;2023-08-01T12:20:47;2.63;;;1.65;;
45893;SDS011;31603;51.148;16.932;2023-08-01T12:23:14;3.08;;;1.40;;
45893;SDS011;31603;51.148;16.932;2023-08-01T12:25:40;1.95;;;1.40;;
45893;SDS011;31603;51.148;16.932;2023-08-01T12:28:07;2.20;;;1.42;;
45893;SDS011;31603;51.148;16.932;2023-08-01T12:30:34;2.55;;;1.83;;
45893;SDS011;31603;51.148;16.932;2023-08-01T12:33:00;3.22;;;1.63;;
45893;SDS011;31603;51.148;16.932;2023-08-01T12:35:27;3.53;;;1.52;;
45893;SDS011;31603;51.148;16.932;2023-08-01T12:37:53;2.17;;;1.52;;
45893;SDS011;31603;51.148;16.932;2023-08-01T12:40:19;4.75;;;1.30;;
45893;SDS011;31603;51.148;16.932;2023-08-01T12:42:46;1.90;;;1.60;;
45893;SDS011;31603;51.148;16.932;2023-08-01T12:45:13;2.17;;;1.60;;
45893;SDS011;31603;51.148;16.932;2023-08-01T12:47:40;3.70;;;1.65;;
45893;SDS011;31603;51.148;16.932;2023-08-01T12:50:06;2.05;;;1.10;;
45893;SDS011;31603;51.148;16.932;2023-08-01T12:52:33;4.95;;;1.35;;
45893;SDS011;31603;51.148;16.932;2023-08-01T12:54:59;2.78;;;1.40;;
45893;SDS011;31603;51.148;16.932;2023-08-01T12:57:25;3.08;;;1.23;;
45893;SDS011;31603;51.148;16.932;2023-08-01T12:59:51;2.55;;;1.35;;
45893;SDS011;31603;51.148;16.932;2023-08-01T13:02:19;2.38;;;1.17;;
45893;SDS011;31603;51.148;16.932;2023-08-01T13:04:45;6.22;;;1.73;;
45893;SDS011;31603;51.148;16.932;2023-08-01T13:07:11;3.40;;;1.40;;
45893;SDS011;31603;51.148;16.932;2023-08-01T13:09:38;1.92;;;1.20;;
45893;SDS011;31603;51.148;16.932;2023-08-01T13:12:05;1.73;;;1.42;;
45893;SDS011;31603;51.148;16.932;2023-08-01T13:14:31;2.40;;;1.58;;
45893;SDS011;31603;51.148;16.932;2023-08-01T13:16:57;2.30;;;1.70;;
45893;SDS011;31603;51.148;16.932;2023-08-01T13:19:25;4.60;;;1.23;;
45893;SDS011;31603;51.148;16.932;2023-08-01T13:21:51;2.65;;;1.50;;
45893;SDS011;31603;51.148;16.932;2023-08-01T13:24:18;4.55;;;1.40;;
45893;SDS011;31603;51.148;16.932;2023-08-01T13:26:44;2.10;;;1.33;;
45893;SDS011;31603;51.148;16.932;2023-08-01T13:29:10;2.40;;;1.20;;
45893;SDS011;31603;51.148;16.932;2023-08-01T13:31:36;2.90;;;1.40;;
45893;SDS011;31603;51.148;16.932;2023-08-01T13:34:03;2.00;;;1.45;;
45893;SDS011;31603;51.148;16.932;2023-08-01T13:36:30;2.08;;;1.70;;
45893;SDS011;31603;51.148;16.932;2023-08-01T13:38:56;2.58;;;1.55;;
45893;SDS011;31603;51.148;16.932;2023-08-01T13:41:23;2.33;;;1.30;;
45893;SDS011;31603;51.148;16.932;2023-08-01T13:43:50;2.30;;;1.55;;
45893;SDS011;31603;51.148;16.932;2023-08-01T13:46:17;2.05;;;1.33;;
45893;SDS011;31603;51.148;16.932;2023-08-01T13:48:44;2.63;;;1.30;;
45893;SDS011;31603;51.148;16.932;2023-08-01T13:51:11;2.53;;;1.40;;
45893;SDS011;31603;51.148;16.932;2023-08-01T13:53:38;3.78;;;1.80;;
45893;SDS011;31603;51.148;16.932;2023-08-01T13:56:06;3.03;;;1.45;;
45893;SDS011;31603;51.148;16.932;2023-08-01T13:58:32;3.08;;;1.23;;
45893;SDS011;31603;51.148;16.932;2023-08-01T14:01:01;1.70;;;1.10;;
45893;SDS011;31603;51.148;16.932;2023-08-01T14:03:27;1.92;;;1.23;;
45893;SDS011;31603;51.148;16.932;2023-08-01T14:05:53;4.00;;;1.30;;
45893;SDS011;31603;51.148;16.932;2023-08-01T14:08:21;3.00;;;1.48;;
45893;SDS011;31603;51.148;16.932;2023-08-01T14:10:51;8.20;;;1.40;;
45893;SDS011;31603;51.148;16.932;2023-08-01T14:13:17;4.80;;;1.60;;
45893;SDS011;31603;51.148;16.932;2023-08-01T14:15:43;1.48;;;1.15;;
45893;SDS011;31603;51.148;16.932;2023-08-01T14:18:09;3.30;;;1.50;;
45893;SDS011;31603;51.148;16.932;2023-08-01T14:20:35;1.75;;;1.35;;
45893;SDS011;31603;51.148;16.932;2023-08-01T14:23:02;3.40;;;1.30;;
45893;SDS011;31603;51.148;16.932;2023-08-01T14:25:28;3.80;;;1.10;;
45893;SDS011;31603;51.148;16.932;2023-08-01T14:27:55;1.77;;;1.20;;
45893;SDS011;31603;51.148;16.932;2023-08-01T14:30:22;3.13;;;1.20;;
45893;SDS011;31603;51.148;16.932;2023-08-01T14:32:49;2.60;;;1.20;;